createdAt,value
2019-04-10T00:00:37.280Z,15.40
2019-04-10T00:03:08.256Z,15.40
2019-04-10T00:05:38.289Z,15.40
2019-04-10T00:08:09.972Z,15.50
2019-04-10T00:10:40.480Z,15.50
2019-04-10T00:13:10.307Z,15.50
2019-04-10T00:15:40.336Z,15.50
2019-04-10T00:18:10.209Z,15.30
2019-04-10T00:20:42.679Z,15.20
2019-04-10T00:23:13.171Z,15.10
2019-04-10T00:25:43.438Z,15.10
2019-04-10T00:28:13.422Z,15.00
2019-04-10T00:30:43.324Z,15.10
2019-04-10T00:33:13.367Z,15.10
2019-04-10T00:35:43.755Z,15.20
2019-04-10T00:38:13.771Z,15.10
2019-04-10T00:40:43.793Z,15.00
2019-04-10T00:43:13.599Z,15.00
2019-04-10T00:45:44.002Z,14.80
2019-04-10T00:48:13.892Z,14.80
2019-04-10T00:50:44.601Z,14.90
2019-04-10T00:53:14.561Z,14.90
2019-04-10T00:55:44.395Z,14.90
2019-04-10T00:58:14.288Z,14.80
2019-04-10T01:00:44.122Z,14.70
2019-04-10T01:03:15.965Z,14.60
2019-04-10T01:05:45.857Z,14.50
2019-04-10T01:08:16.111Z,14.40
2019-04-10T01:10:46.300Z,14.40
2019-04-10T01:13:16.714Z,14.50
2019-04-10T01:15:46.903Z,14.70
2019-04-10T01:18:17.188Z,14.80
2019-04-10T01:20:48.019Z,14.80
2019-04-10T01:23:18.100Z,14.90
2019-04-10T01:25:48.408Z,14.70
2019-04-10T01:28:18.285Z,14.60
2019-04-10T01:30:48.645Z,14.70
2019-04-10T01:33:18.706Z,14.60
2019-04-10T01:35:48.802Z,14.60
2019-04-10T01:38:19.620Z,14.60
2019-04-10T01:40:51.167Z,14.60
2019-04-10T01:43:20.990Z,14.50
2019-04-10T01:45:51.560Z,14.50
2019-04-10T01:48:21.534Z,14.50
2019-04-10T01:50:51.439Z,14.60
2019-04-10T01:53:21.780Z,14.50
2019-04-10T01:55:51.855Z,14.40
2019-04-10T01:58:23.319Z,14.50
2019-04-10T02:00:54.813Z,14.40
2019-04-10T02:03:25.648Z,14.40
2019-04-10T02:05:56.684Z,14.50
2019-04-10T02:08:26.800Z,14.50
2019-04-10T02:10:56.741Z,14.50
2019-04-10T02:13:27.535Z,14.50
2019-04-10T02:15:58.529Z,14.50
2019-04-10T02:18:29.459Z,14.20
2019-04-10T02:20:59.581Z,14.10
2019-04-10T02:23:30.251Z,14.00
2019-04-10T02:26:01.262Z,13.90
2019-04-10T02:28:31.211Z,13.90
2019-04-10T02:31:02.725Z,14.00
2019-04-10T02:33:33.626Z,14.10
2019-04-10T02:36:04.255Z,14.20
2019-04-10T02:38:49.243Z,14.30
2019-04-10T02:41:08.171Z,14.30
2019-04-10T02:43:39.694Z,14.30
2019-04-10T02:46:11.276Z,14.30
2019-04-10T02:48:41.584Z,14.30
2019-04-10T02:51:11.508Z,14.30
2019-04-10T02:53:41.384Z,14.40
2019-04-10T02:56:11.822Z,14.40
2019-04-10T02:58:47.036Z,14.40
2019-04-10T03:01:17.464Z,14.40
2019-04-10T03:03:47.554Z,14.30
2019-04-10T03:06:18.736Z,14.30
2019-04-10T03:09:05.931Z,14.30
2019-04-10T03:11:22.191Z,14.20
2019-04-10T03:13:53.318Z,14.20
2019-04-10T03:16:23.809Z,14.10
2019-04-10T03:18:53.671Z,14.00
2019-04-10T03:21:23.570Z,14.10
2019-04-10T03:23:53.798Z,14.00
2019-04-10T03:26:25.633Z,14.00
2019-04-10T03:28:55.685Z,14.00
2019-04-10T03:31:27.787Z,14.00
2019-04-10T03:34:03.325Z,14.10
2019-04-10T03:36:38.004Z,14.10
2019-04-10T03:39:10.465Z,14.10
2019-04-10T03:41:42.145Z,14.10
2019-04-10T03:44:12.138Z,14.10
2019-04-10T03:46:42.698Z,14.10
2019-04-10T03:49:13.640Z,14.10
2019-04-10T03:51:44.945Z,14.10
2019-04-10T03:54:15.243Z,14.10
2019-04-10T03:56:45.696Z,14.20
2019-04-10T03:59:15.920Z,14.20
2019-04-10T04:01:45.789Z,14.20
2019-04-10T04:04:15.677Z,14.20
2019-04-10T04:06:46.429Z,14.00
2019-04-10T04:09:17.516Z,14.00
2019-04-10T04:11:48.122Z,14.00
2019-04-10T04:14:18.064Z,14.00
2019-04-10T04:16:49.070Z,14.00
2019-04-10T04:19:19.033Z,14.10
2019-04-10T04:21:50.280Z,14.20
2019-04-10T04:24:23.538Z,14.10
2019-04-10T04:26:53.473Z,14.10
2019-04-10T04:29:23.304Z,14.00
2019-04-10T04:31:53.181Z,14.00
2019-04-10T04:34:23.070Z,14.00
2019-04-10T04:36:53.580Z,14.00
2019-04-10T04:39:26.973Z,14.00
2019-04-10T04:41:55.073Z,13.90
2019-04-10T04:44:24.907Z,13.90
2019-04-10T04:46:54.851Z,14.00
2019-04-10T04:49:24.758Z,14.10
2019-04-10T04:51:54.720Z,14.00
2019-04-10T04:54:25.511Z,14.00
2019-04-10T04:56:56.153Z,14.00
2019-04-10T04:59:28.119Z,14.00
2019-04-10T05:01:58.181Z,14.00
2019-04-10T05:04:28.024Z,14.00
2019-04-10T05:06:59.849Z,14.00
2019-04-10T05:09:35.604Z,13.90
2019-04-10T05:12:01.439Z,14.00
2019-04-10T05:14:31.528Z,14.10
2019-04-10T05:17:01.808Z,14.00
2019-04-10T05:19:32.002Z,14.00
2019-04-10T05:22:01.959Z,14.00
2019-04-10T05:24:32.045Z,14.00
2019-04-10T05:27:02.340Z,14.00
2019-04-10T05:29:32.125Z,14.00
2019-04-10T05:32:02.071Z,14.00
2019-04-10T05:34:31.895Z,14.00
2019-04-10T05:37:01.746Z,14.00
2019-04-10T05:39:40.559Z,14.10
2019-04-10T05:42:04.208Z,14.10
2019-04-10T05:44:34.297Z,14.20
2019-04-10T05:47:05.401Z,14.20
2019-04-10T05:49:37.276Z,14.20
2019-04-10T05:52:08.179Z,14.30
2019-04-10T05:54:39.464Z,14.40
2019-04-10T05:57:10.379Z,14.50
2019-04-10T05:59:40.464Z,14.60
2019-04-10T06:02:10.449Z,14.60
2019-04-10T06:04:41.210Z,14.70
2019-04-10T06:07:12.699Z,14.70
2019-04-10T06:09:54.003Z,14.80
2019-04-10T06:12:14.297Z,14.80
2019-04-10T06:14:44.269Z,14.90
2019-04-10T06:17:14.202Z,14.90
2019-04-10T06:19:44.789Z,14.90
2019-04-10T06:22:14.818Z,14.90
2019-04-10T06:24:44.787Z,14.80
2019-04-10T06:27:14.772Z,14.80
2019-04-10T06:29:46.257Z,14.80
2019-04-10T06:32:17.055Z,14.70
2019-04-10T06:34:48.046Z,14.70
2019-04-10T06:37:18.249Z,14.80
2019-04-10T06:39:49.022Z,15.00
2019-04-10T06:42:20.316Z,15.20
2019-04-10T06:44:50.471Z,15.30
2019-04-10T06:47:20.421Z,15.40
2019-04-10T06:49:50.531Z,15.50
2019-04-10T06:52:20.704Z,15.70
2019-04-10T06:54:51.107Z,15.70
2019-04-10T06:57:21.086Z,15.80
2019-04-10T06:59:51.050Z,15.80
2019-04-10T07:02:27.344Z,15.80
2019-04-10T07:04:55.971Z,15.80
2019-04-10T07:07:27.190Z,16.00
2019-04-10T07:09:57.128Z,16.20
2019-04-10T07:12:32.146Z,16.30
2019-04-10T07:15:00.687Z,16.50
2019-04-10T07:17:35.681Z,16.60
2019-04-10T07:20:03.753Z,16.50
2019-04-10T07:22:33.792Z,16.40
2019-04-10T07:25:04.662Z,16.30
2019-04-10T07:27:36.956Z,16.40
2019-04-10T07:30:07.969Z,16.50
2019-04-10T07:32:42.127Z,16.60
2019-04-10T07:35:09.424Z,16.50
2019-04-10T07:37:40.359Z,16.50
2019-04-10T07:40:12.250Z,16.60
2019-04-10T07:42:43.346Z,16.60
2019-04-10T07:45:14.076Z,16.70
2019-04-10T07:47:44.134Z,16.70
2019-04-10T07:50:14.372Z,16.80
2019-04-10T07:52:45.896Z,16.90
2019-04-10T07:55:16.897Z,17.00
2019-04-10T07:57:48.567Z,17.20
2019-04-10T08:00:18.525Z,17.30
2019-04-10T08:02:49.147Z,17.30
2019-04-10T08:05:19.309Z,17.40
2019-04-10T08:07:49.306Z,17.50
2019-04-10T08:10:20.012Z,17.50
2019-04-10T08:12:53.338Z,17.50
2019-04-10T08:15:21.646Z,17.40
2019-04-10T08:17:51.869Z,17.50
2019-04-10T08:20:22.020Z,17.70
2019-04-10T08:22:51.941Z,17.90
2019-04-10T08:25:22.714Z,18.00
2019-04-10T08:27:52.772Z,18.20
2019-04-10T08:30:23.669Z,18.40
2019-04-10T08:33:00.614Z,18.40
2019-04-10T08:35:25.297Z,18.50
2019-04-10T08:37:55.195Z,18.60
2019-04-10T08:40:25.084Z,18.60
2019-04-10T08:42:55.733Z,18.60
2019-04-10T08:45:35.766Z,18.70
2019-04-10T08:47:57.382Z,18.70
2019-04-10T08:50:28.063Z,18.80
2019-04-10T08:52:58.045Z,18.90
2019-04-10T08:55:28.938Z,18.90
2019-04-10T08:57:58.892Z,19.00
2019-04-10T09:00:28.925Z,19.20
2019-04-10T09:03:00.227Z,19.20
2019-04-10T09:05:30.245Z,19.30
2019-04-10T09:08:00.339Z,19.30
2019-04-10T09:10:30.363Z,19.40
2019-04-10T09:13:00.294Z,19.20
2019-04-10T09:15:30.191Z,19.10
2019-04-10T09:18:01.948Z,19.10
2019-04-10T09:20:32.936Z,19.10
2019-04-10T09:23:21.502Z,19.10
2019-04-10T09:25:35.349Z,19.10
2019-04-10T09:28:06.387Z,19.10
2019-04-10T09:30:37.246Z,19.10
2019-04-10T09:33:18.759Z,19.20
2019-04-10T09:35:38.744Z,19.50
2019-04-10T09:38:08.583Z,19.60
2019-04-10T09:40:38.482Z,19.80
2019-04-10T09:43:09.331Z,20.10
2019-04-10T09:45:39.363Z,20.10
2019-04-10T09:48:09.181Z,20.10
2019-04-10T09:50:39.620Z,19.80
2019-04-10T09:53:10.718Z,20.00
2019-04-10T09:55:40.727Z,20.30
2019-04-10T09:58:10.581Z,20.40
2019-04-10T10:00:40.477Z,20.60
2019-04-10T10:03:11.838Z,20.20
2019-04-10T10:05:42.455Z,20.00
2019-04-10T10:08:12.416Z,20.30
2019-04-10T10:10:42.346Z,20.50
2019-04-10T10:13:13.083Z,20.70
2019-04-10T10:15:43.235Z,21.00
2019-04-10T10:18:14.350Z,20.90
2019-04-10T10:20:44.253Z,20.80
2019-04-10T10:23:14.095Z,20.90
2019-04-10T10:25:43.920Z,21.00
2019-04-10T10:28:15.234Z,21.20
2019-04-10T10:30:45.245Z,21.30
2019-04-10T10:33:17.330Z,21.60
2019-04-10T10:35:47.524Z,21.70
2019-04-10T10:38:17.347Z,21.10
2019-04-10T10:40:47.314Z,20.80
2019-04-10T10:43:18.307Z,20.80
2019-04-10T10:45:49.177Z,20.70
2019-04-10T10:48:19.856Z,20.40
2019-04-10T10:50:49.990Z,20.40
2019-04-10T10:53:19.948Z,20.10
2019-04-10T10:55:49.807Z,20.20
2019-04-10T10:58:21.760Z,20.20
2019-04-10T11:00:53.698Z,20.20
2019-04-10T11:03:24.528Z,20.40
2019-04-10T11:05:55.713Z,20.30
2019-04-10T11:08:25.549Z,20.20
2019-04-10T11:10:57.199Z,20.00
2019-04-10T11:13:26.909Z,20.10
2019-04-10T11:15:57.111Z,20.20
2019-04-10T11:18:26.980Z,20.20
2019-04-10T11:21:02.919Z,20.60
2019-04-10T11:23:28.538Z,21.20
2019-04-10T11:25:59.539Z,21.70
2019-04-10T11:31:01.822Z,22.60
2019-04-10T11:33:32.953Z,22.80
2019-04-10T11:36:03.784Z,23.10
2019-04-10T11:38:33.791Z,23.40
2019-04-10T11:41:06.360Z,22.90
2019-04-10T11:43:37.718Z,23.00
2019-04-10T11:46:10.302Z,23.30
2019-04-10T11:48:44.644Z,23.70
2019-04-10T11:51:13.450Z,23.90
2019-04-10T11:53:47.214Z,23.60
2019-04-10T11:56:17.533Z,23.20
2019-04-10T11:58:53.728Z,22.90
2019-04-10T12:01:21.220Z,22.40
2019-04-10T12:03:53.939Z,21.70
2019-04-10T12:06:24.695Z,21.30
2019-04-10T12:09:13.300Z,21.00
2019-04-10T12:11:24.995Z,20.80
2019-04-10T12:13:54.956Z,20.40
2019-04-10T12:16:25.181Z,19.70
2019-04-10T12:18:55.951Z,19.10
2019-04-10T12:21:27.409Z,18.70
2019-04-10T12:23:57.380Z,18.30
2019-04-10T12:26:27.631Z,17.40
2019-04-10T12:28:58.206Z,16.90
2019-04-10T12:31:28.189Z,16.80
2019-04-10T12:33:59.927Z,16.70
2019-04-10T12:36:30.990Z,16.80
2019-04-10T12:39:00.973Z,16.70
2019-04-10T12:41:33.204Z,16.80
2019-04-10T12:44:03.422Z,16.80
2019-04-10T12:46:33.345Z,16.50
2019-04-10T12:49:03.836Z,16.40
2019-04-10T12:51:38.168Z,16.30
2019-04-10T12:54:08.135Z,16.20
2019-04-10T12:56:37.993Z,16.10
2019-04-10T12:59:08.922Z,15.80
2019-04-10T13:01:38.882Z,15.60
2019-04-10T13:04:08.919Z,15.10
2019-04-10T13:06:39.929Z,14.70
2019-04-10T13:09:13.024Z,14.60
2019-04-10T13:11:45.385Z,14.60
2019-04-10T13:14:17.287Z,14.80
2019-04-10T13:16:47.904Z,15.00
2019-04-10T13:19:18.791Z,14.80
2019-04-10T13:21:51.714Z,15.00
2019-04-10T13:24:23.791Z,15.10
2019-04-10T13:26:55.052Z,15.30
2019-04-10T13:29:24.960Z,15.50
2019-04-10T13:31:55.782Z,15.40
2019-04-10T13:34:26.907Z,15.20
2019-04-10T13:36:56.841Z,15.10
2019-04-10T13:39:27.733Z,15.20
2019-04-10T13:41:58.797Z,15.20
2019-04-10T13:44:28.852Z,15.40
2019-04-10T13:46:59.760Z,15.50
2019-04-10T13:49:30.295Z,15.70
2019-04-10T13:52:01.460Z,15.80
2019-04-10T13:54:32.646Z,15.80
2019-04-10T13:57:03.472Z,15.80
2019-04-10T13:59:33.481Z,15.80
2019-04-10T14:02:04.778Z,15.70
2019-04-10T14:04:35.612Z,15.80
2019-04-10T14:07:07.382Z,15.80
2019-04-10T14:09:43.997Z,16.00
2019-04-10T14:12:10.035Z,16.00
2019-04-10T14:14:40.469Z,16.20
2019-04-10T14:17:11.080Z,16.30
2019-04-10T14:19:41.519Z,16.50
2019-04-10T14:22:11.475Z,16.60
2019-04-10T14:24:45.226Z,16.70
2019-04-10T14:27:18.343Z,16.80
2019-04-10T14:29:49.051Z,16.80
2019-04-10T14:32:21.622Z,17.00
2019-04-10T14:34:52.430Z,16.80
2019-04-10T14:37:23.243Z,16.50
2019-04-10T14:39:53.191Z,16.20
2019-04-10T14:42:23.164Z,16.20
2019-04-10T14:44:53.145Z,16.30
2019-04-10T14:47:23.881Z,16.20
2019-04-10T14:49:54.890Z,16.30
2019-04-10T14:52:27.326Z,16.30
2019-04-10T14:54:57.238Z,16.40
2019-04-10T14:57:27.266Z,16.40
2019-04-10T14:59:57.941Z,16.50
2019-04-10T15:02:27.800Z,16.50
2019-04-10T15:04:57.704Z,16.50
2019-04-10T15:07:27.598Z,16.60
2019-04-10T15:09:57.530Z,16.70
2019-04-10T15:12:28.087Z,16.90
2019-04-10T15:14:59.583Z,16.90
2019-04-10T15:17:30.811Z,17.10
2019-04-10T15:20:00.989Z,17.00
2019-04-10T15:22:31.783Z,17.10
2019-04-10T15:25:01.774Z,17.60
2019-04-10T15:27:35.447Z,18.30
2019-04-10T15:30:08.341Z,19.10
2019-04-10T15:32:38.705Z,19.30
2019-04-10T15:35:10.429Z,19.30
2019-04-10T15:37:41.584Z,19.30
2019-04-10T15:40:19.999Z,19.30
2019-04-10T15:42:46.044Z,18.90
2019-04-10T15:45:16.431Z,19.00
2019-04-10T15:47:52.677Z,18.80
2019-04-10T15:50:18.099Z,18.70
2019-04-10T15:52:49.351Z,18.80
2019-04-10T15:55:19.513Z,18.60
2019-04-10T15:57:53.820Z,18.50
2019-04-10T16:00:21.234Z,18.50
2019-04-10T16:02:51.294Z,18.40
2019-04-10T16:05:21.636Z,18.40
2019-04-10T16:07:51.741Z,18.40
2019-04-10T16:10:29.089Z,18.40
2019-04-10T16:13:14.531Z,18.60
2019-04-10T16:15:44.987Z,18.50
2019-04-10T16:18:19.324Z,18.10
2019-04-10T16:20:50.873Z,17.90
2019-04-10T16:23:22.325Z,17.80
2019-04-10T16:25:54.491Z,17.70
2019-04-10T16:28:25.372Z,17.70
2019-04-10T16:30:55.248Z,17.50
2019-04-10T16:33:25.437Z,17.50
2019-04-10T16:35:55.397Z,17.30
2019-04-10T16:38:25.435Z,17.30
2019-04-10T16:40:56.963Z,17.30
2019-04-10T16:43:26.929Z,17.30
2019-04-10T16:45:57.277Z,17.20
2019-04-10T16:48:28.798Z,17.20
2019-04-10T16:50:59.697Z,17.20
2019-04-10T16:53:29.943Z,17.10
2019-04-10T16:56:01.030Z,17.10
2019-04-10T16:58:32.022Z,17.20
2019-04-10T17:01:02.305Z,17.00
2019-04-10T17:03:33.773Z,17.00
2019-04-10T17:06:04.009Z,17.00
2019-04-10T17:08:34.282Z,16.90
2019-04-10T17:11:07.784Z,16.80
2019-04-10T17:13:38.494Z,16.80
2019-04-10T17:16:09.276Z,16.70
2019-04-10T17:18:39.316Z,16.70
2019-04-10T17:21:11.096Z,16.50
2019-04-10T17:23:41.198Z,16.40
2019-04-10T17:26:11.382Z,16.40
2019-04-10T17:28:41.269Z,16.40
2019-04-10T17:31:11.535Z,16.40
2019-04-10T17:33:41.903Z,16.30
2019-04-10T17:36:12.025Z,16.30
2019-04-10T17:38:42.798Z,16.20
2019-04-10T17:41:12.778Z,16.20
2019-04-10T17:43:43.469Z,16.20
2019-04-10T17:46:13.450Z,16.20
2019-04-10T17:48:44.156Z,16.20
2019-04-10T17:51:14.700Z,16.20
2019-04-10T17:53:45.393Z,16.20
2019-04-10T17:56:18.088Z,16.20
2019-04-10T17:58:47.986Z,16.20
2019-04-10T18:01:19.433Z,16.20
2019-04-10T18:03:54.777Z,16.20
2019-04-10T18:06:21.440Z,16.20
2019-04-10T18:08:51.495Z,16.10
2019-04-10T18:11:22.501Z,16.00
2019-04-10T18:13:53.066Z,16.00
2019-04-10T18:16:22.934Z,15.90
2019-04-10T18:18:53.864Z,15.80
2019-04-10T18:21:24.579Z,15.70
2019-04-10T18:23:55.780Z,15.70
2019-04-10T18:26:25.767Z,15.70
2019-04-10T18:28:56.130Z,15.70
2019-04-10T18:31:27.785Z,15.70
2019-04-10T18:33:58.587Z,15.70
2019-04-10T18:36:29.772Z,15.70
2019-04-10T18:38:59.839Z,15.70
2019-04-10T18:41:30.026Z,15.70
2019-04-10T18:44:00.537Z,15.60
2019-04-10T18:46:31.476Z,15.60
2019-04-10T18:49:01.289Z,15.70
2019-04-10T18:51:32.028Z,15.70
2019-04-10T18:54:02.006Z,15.70
2019-04-10T18:56:31.965Z,15.70
2019-04-10T18:59:06.100Z,15.70
2019-04-10T19:01:53.611Z,15.70
2019-04-10T19:04:32.819Z,15.80
2019-04-10T19:07:02.812Z,15.80
2019-04-10T19:09:34.447Z,15.80
2019-04-10T19:12:04.513Z,15.80
2019-04-10T19:14:36.613Z,15.90
2019-04-10T19:17:06.746Z,15.90
2019-04-10T19:19:40.401Z,15.90
2019-04-10T19:22:09.879Z,15.90
2019-04-10T19:24:39.939Z,15.90
2019-04-10T19:27:11.815Z,15.80
2019-04-10T19:29:42.427Z,15.80
2019-04-10T19:32:14.146Z,15.80
2019-04-10T19:34:43.954Z,15.80
2019-04-10T19:37:14.516Z,15.70
2019-04-10T19:39:44.675Z,15.70
2019-04-10T19:42:15.613Z,15.60
2019-04-10T19:44:45.669Z,15.60
2019-04-10T19:47:17.935Z,15.70
2019-04-10T19:49:48.929Z,15.70
2019-04-10T19:52:18.767Z,15.70
2019-04-10T19:54:49.304Z,15.70
2019-04-10T19:57:19.353Z,15.70
2019-04-10T19:59:50.223Z,15.70
2019-04-10T20:02:20.404Z,15.70
2019-04-10T20:04:52.699Z,15.70
2019-04-10T20:07:22.844Z,15.60
2019-04-10T20:09:52.879Z,15.60
2019-04-10T20:12:22.749Z,15.60
2019-04-10T20:14:53.363Z,15.60
2019-04-10T20:17:24.041Z,15.60
2019-04-10T20:19:56.473Z,15.50
2019-04-10T20:22:27.813Z,15.60
2019-04-10T20:24:57.262Z,15.70
2019-04-10T20:27:27.803Z,15.50
2019-04-10T20:29:57.681Z,15.40
2019-04-10T20:32:28.073Z,15.40
2019-04-10T20:34:58.098Z,15.50
2019-04-10T20:37:29.051Z,15.40
2019-04-10T20:39:59.015Z,15.50
2019-04-10T20:42:29.920Z,15.50
2019-04-10T20:45:00.827Z,15.50
2019-04-10T20:47:30.998Z,15.50
2019-04-10T20:50:01.877Z,15.50
2019-04-10T20:52:32.977Z,15.50
2019-04-10T20:55:03.593Z,15.50
2019-04-10T20:57:33.587Z,15.40
2019-04-10T21:00:05.628Z,15.40
2019-04-10T21:02:36.223Z,15.30
2019-04-10T21:05:09.812Z,15.20
2019-04-10T21:07:39.562Z,15.20
2019-04-10T21:10:09.637Z,15.10
2019-04-10T21:12:39.879Z,15.00
2019-04-10T21:15:11.121Z,14.90
2019-04-10T21:17:42.499Z,14.70
2019-04-10T21:20:15.918Z,14.60
2019-04-10T21:22:45.807Z,14.50
2019-04-10T21:25:15.625Z,14.40
2019-04-10T21:27:48.781Z,14.30
2019-04-10T21:30:22.086Z,14.30
2019-04-10T21:32:56.544Z,14.20
2019-04-10T21:35:27.848Z,14.20
2019-04-10T21:37:59.305Z,14.10
2019-04-10T21:40:29.123Z,14.10
2019-04-10T21:42:59.019Z,14.00
2019-04-10T21:45:30.619Z,14.00
2019-04-10T21:48:10.517Z,14.00
2019-04-10T21:50:41.990Z,14.00
2019-04-10T21:53:12.235Z,13.90
2019-04-10T21:55:42.156Z,13.80
2019-04-10T21:58:17.895Z,13.60
2019-04-10T22:01:01.631Z,13.60
2019-04-10T22:03:33.782Z,13.70
2019-04-10T22:06:19.859Z,13.70
2019-04-10T22:09:10.578Z,13.70
2019-04-10T22:11:43.376Z,13.80
2019-04-10T22:14:21.493Z,13.80
2019-04-10T22:16:52.549Z,13.70
2019-04-10T22:19:26.933Z,13.80
2019-04-10T22:21:57.799Z,13.80
2019-04-10T22:24:27.941Z,13.80
2019-04-10T22:26:58.611Z,13.80
2019-04-10T22:29:28.572Z,13.70
2019-04-10T22:31:58.476Z,13.80
2019-04-10T22:34:34.241Z,13.70
2019-04-10T22:37:04.278Z,13.60
2019-04-10T22:39:34.344Z,13.60
2019-04-10T22:42:05.299Z,13.50
2019-04-10T22:44:41.953Z,13.60
2019-04-10T22:47:07.131Z,13.70
2019-04-10T22:49:37.126Z,13.60
2019-04-10T22:52:10.943Z,13.60
2019-04-10T22:54:40.779Z,13.60
2019-04-10T22:57:10.672Z,13.60
2019-04-10T22:59:40.569Z,13.60
2019-04-10T23:02:12.047Z,13.60
2019-04-10T23:04:42.820Z,13.50
2019-04-10T23:07:13.521Z,13.40
2019-04-10T23:09:44.415Z,13.50
2019-04-10T23:12:16.213Z,13.50
2019-04-10T23:14:47.027Z,13.50
2019-04-10T23:17:16.982Z,13.50
2019-04-10T23:19:46.885Z,13.60
2019-04-10T23:22:16.870Z,13.40
2019-04-10T23:24:47.662Z,13.40
2019-04-10T23:27:17.748Z,13.40
2019-04-10T23:29:48.598Z,13.30
2019-04-10T23:32:19.427Z,13.30
2019-04-10T23:34:50.517Z,13.30
2019-04-10T23:37:20.606Z,13.30
2019-04-10T23:39:50.567Z,13.30
2019-04-10T23:42:21.335Z,13.30
2019-04-10T23:44:51.383Z,13.20
2019-04-10T23:47:22.168Z,13.10
2019-04-10T23:49:52.181Z,13.20
2019-04-10T23:52:22.000Z,13.20
2019-04-10T23:54:51.904Z,13.20
2019-04-10T23:57:21.730Z,13.10
2019-04-10T23:59:51.553Z,13.00
